createdAt,value
2023-02-12T00:02:05.647Z,28.17
2023-02-12T00:05:11.644Z,16.77
2023-02-12T00:08:17.854Z,24.23
2023-02-12T00:11:25.869Z,27.37
2023-02-12T00:14:34.702Z,20.33
2023-02-12T00:17:40.905Z,14.93
2023-02-12T00:20:47.322Z,20.03
2023-02-12T00:23:53.736Z,34.83
2023-02-12T00:27:00.210Z,24.20
2023-02-12T00:30:09.239Z,19.77
2023-02-12T00:33:15.340Z,31.47
2023-02-12T00:36:24.515Z,25.90
2023-02-12T00:39:30.734Z,34.80
2023-02-12T00:42:37.211Z,45.00
2023-02-12T00:45:46.056Z,46.27
2023-02-12T00:48:52.670Z,38.50
2023-02-12T00:51:59.046Z,51.10
2023-02-12T00:55:06.187Z,23.03
2023-02-12T00:58:12.584Z,29.07
2023-02-12T01:01:20.469Z,27.00
2023-02-12T01:04:26.849Z,43.00
2023-02-12T01:07:33.389Z,29.53
2023-02-12T01:10:39.774Z,41.80
2023-02-12T01:13:46.283Z,24.07
2023-02-12T01:16:54.198Z,25.57
2023-02-12T01:20:00.954Z,43.07
2023-02-12T01:23:08.635Z,35.57
2023-02-12T01:26:16.375Z,41.83
2023-02-12T01:29:22.473Z,26.97
2023-02-12T01:32:30.203Z,31.30
2023-02-12T01:35:38.426Z,29.03
2023-02-12T01:38:45.068Z,23.13
2023-02-12T01:41:51.337Z,24.53
2023-02-12T01:45:41.251Z,31.57
2023-02-12T01:48:49.844Z,19.33
2023-02-12T01:51:59.526Z,22.87
2023-02-12T01:55:08.755Z,19.27
2023-02-12T01:58:16.096Z,36.00
2023-02-12T02:01:25.905Z,35.10
2023-02-12T02:04:38.623Z,28.83
2023-02-12T02:07:45.669Z,26.07
2023-02-12T02:10:52.431Z,28.43
2023-02-12T02:14:16.571Z,36.87
2023-02-12T02:17:36.176Z,19.87
2023-02-12T02:21:19.445Z,41.07
2023-02-12T02:24:49.069Z,28.50
2023-02-12T02:28:08.174Z,28.47
2023-02-12T02:31:18.991Z,14.20
2023-02-12T02:34:34.245Z,13.53
2023-02-12T02:37:47.389Z,14.93
2023-02-12T02:40:57.811Z,9.03
2023-02-12T02:44:09.130Z,8.87
2023-02-12T02:47:20.327Z,15.40
2023-02-12T02:50:30.584Z,17.20
2023-02-12T02:53:40.901Z,22.67
2023-02-12T02:56:51.935Z,24.93
2023-02-12T03:00:05.315Z,29.50
2023-02-12T03:03:21.256Z,16.33
2023-02-12T03:06:31.890Z,20.20
2023-02-12T03:09:41.308Z,13.20
2023-02-12T03:12:53.367Z,15.77
2023-02-12T03:16:03.970Z,14.63
2023-02-12T03:19:19.324Z,27.97
2023-02-12T03:22:32.744Z,16.07
2023-02-12T03:25:45.868Z,10.33
2023-02-12T03:28:52.946Z,13.77
2023-02-12T03:32:15.497Z,12.93
2023-02-12T03:35:27.608Z,13.53
2023-02-12T03:38:38.875Z,13.17
2023-02-12T03:41:49.406Z,12.47
2023-02-12T03:45:01.113Z,24.20
2023-02-12T03:48:12.656Z,17.57
2023-02-12T03:51:25.205Z,11.63
2023-02-12T03:54:32.024Z,16.70
2023-02-12T03:57:42.524Z,20.50
2023-02-12T04:00:49.374Z,22.37
2023-02-12T04:03:55.578Z,16.83
2023-02-12T04:07:03.486Z,13.57
2023-02-12T04:10:10.864Z,10.57
2023-02-12T04:13:22.685Z,18.10
2023-02-12T04:16:36.931Z,31.57
2023-02-12T04:19:56.765Z,26.70
2023-02-12T04:23:13.188Z,21.57
2023-02-12T04:26:26.296Z,28.17
2023-02-12T04:29:44.414Z,22.93
2023-02-12T04:32:55.224Z,14.93
2023-02-12T04:36:04.577Z,17.13
2023-02-12T04:39:17.633Z,17.40
2023-02-12T04:42:24.510Z,18.50
2023-02-12T04:45:33.186Z,22.87
2023-02-12T04:48:54.646Z,18.40
2023-02-12T04:52:00.981Z,18.63
2023-02-12T04:55:09.367Z,16.37
2023-02-12T04:58:15.592Z,31.43
2023-02-12T05:04:46.374Z,36.43
2023-02-12T05:07:52.775Z,35.87
2023-02-12T05:11:05.622Z,29.00
2023-02-12T05:14:12.566Z,17.03
2023-02-12T05:17:18.577Z,12.80
2023-02-12T05:20:24.964Z,14.20
2023-02-12T05:23:33.087Z,17.33
2023-02-12T05:26:41.088Z,12.00
2023-02-12T05:29:47.305Z,25.43
2023-02-12T05:32:53.608Z,48.70
2023-02-12T05:36:05.644Z,57.60
2023-02-12T05:39:12.519Z,50.90
2023-02-12T05:42:20.036Z,40.30
2023-02-12T05:45:28.142Z,32.07
2023-02-12T05:48:35.474Z,26.73
2023-02-12T05:51:41.989Z,34.47
2023-02-12T05:54:50.875Z,33.43
2023-02-12T05:57:58.846Z,42.73
2023-02-12T06:01:10.317Z,32.43
2023-02-12T06:04:17.880Z,34.37
2023-02-12T06:07:24.417Z,36.83
2023-02-12T06:10:30.328Z,28.50
2023-02-12T06:13:37.985Z,35.40
2023-02-12T06:16:47.931Z,26.07
2023-02-12T06:19:54.063Z,47.10
2023-02-12T06:23:00.317Z,22.87
2023-02-12T06:26:06.397Z,29.57
2023-02-12T06:29:14.577Z,56.70
2023-02-12T06:32:21.103Z,36.87
2023-02-12T06:35:27.480Z,44.07
2023-02-12T06:38:36.544Z,48.30
2023-02-12T06:41:44.090Z,47.00
2023-02-12T06:44:53.047Z,37.47
2023-02-12T06:47:59.670Z,47.30
2023-02-12T06:51:08.129Z,45.17
2023-02-12T06:54:16.093Z,67.00
2023-02-12T06:57:23.022Z,33.67
2023-02-12T07:00:30.625Z,53.30
2023-02-12T07:03:37.096Z,53.83
2023-02-12T07:06:42.970Z,38.53
2023-02-12T07:09:49.273Z,40.23
2023-02-12T07:12:55.868Z,33.40
2023-02-12T07:16:07.105Z,45.03
2023-02-12T07:19:16.810Z,30.27
2023-02-12T07:22:23.178Z,32.30
2023-02-12T07:25:29.486Z,51.97
2023-02-12T07:28:36.248Z,53.03
2023-02-12T07:31:45.046Z,34.13
2023-02-12T07:34:51.284Z,30.83
2023-02-12T07:37:57.378Z,16.50
2023-02-12T07:41:12.310Z,22.00
2023-02-12T07:44:19.036Z,31.50
2023-02-12T07:47:26.778Z,34.73
2023-02-12T07:50:33.245Z,46.40
2023-02-12T07:53:39.716Z,32.67
2023-02-12T07:56:47.721Z,30.73
2023-02-12T07:59:54.367Z,41.83
2023-02-12T08:03:01.832Z,35.27
2023-02-12T08:06:12.575Z,27.10
2023-02-12T08:09:20.845Z,14.53
2023-02-12T08:12:27.382Z,35.57
2023-02-12T08:15:33.577Z,25.50
2023-02-12T08:18:41.560Z,25.93
2023-02-12T08:21:51.523Z,23.13
2023-02-12T08:24:58.130Z,14.93
2023-02-12T08:28:04.756Z,17.27
2023-02-12T08:31:12.717Z,16.53
2023-02-12T08:34:22.142Z,19.00
2023-02-12T08:37:28.209Z,13.33
2023-02-12T08:40:34.918Z,13.80
2023-02-12T08:43:42.456Z,13.93
2023-02-12T08:46:50.399Z,11.07
2023-02-12T08:49:57.980Z,19.97
2023-02-12T08:53:04.520Z,17.10
2023-02-12T08:56:11.820Z,23.20
2023-02-12T08:59:18.700Z,20.23
2023-02-12T09:02:25.030Z,27.47
2023-02-12T09:05:32.511Z,21.80
2023-02-12T09:08:39.823Z,24.77
2023-02-12T09:11:45.966Z,17.77
2023-02-12T09:14:52.240Z,18.73
2023-02-12T09:17:58.301Z,15.57
2023-02-12T09:21:08.136Z,15.50
2023-02-12T09:24:14.290Z,20.87
2023-02-12T09:27:20.785Z,19.63
2023-02-12T09:30:27.100Z,16.77
2023-02-12T09:33:33.779Z,10.33
2023-02-12T09:36:41.322Z,13.37
2023-02-12T09:39:50.167Z,6.37
2023-02-12T09:43:08.050Z,9.43
2023-02-12T09:46:21.933Z,6.57
2023-02-12T09:49:49.788Z,21.00
2023-02-12T09:52:59.270Z,19.03
2023-02-12T09:56:12.965Z,18.63
2023-02-12T09:59:30.087Z,7.53
2023-02-12T10:02:37.412Z,12.53
2023-02-12T10:05:49.389Z,10.90
2023-02-12T10:09:04.119Z,6.33
2023-02-12T10:12:17.718Z,5.50
2023-02-12T10:15:38.781Z,5.80
2023-02-12T10:19:00.904Z,17.17
2023-02-12T10:22:21.553Z,6.10
2023-02-12T10:25:37.924Z,10.03
2023-02-12T10:28:44.979Z,18.17
2023-02-12T10:35:13.644Z,15.80
2023-02-12T10:38:23.691Z,19.17
2023-02-12T10:41:33.372Z,9.47
2023-02-12T10:44:39.661Z,8.10
2023-02-12T10:47:47.357Z,9.90
2023-02-12T10:51:07.529Z,9.33
2023-02-12T10:54:45.032Z,4.17
2023-02-12T10:57:52.910Z,19.07
2023-02-12T11:01:00.899Z,11.57
2023-02-12T11:04:22.736Z,11.50
2023-02-12T11:07:30.154Z,10.93
2023-02-12T11:10:39.948Z,12.93
2023-02-12T11:13:54.993Z,9.03
2023-02-12T11:17:02.830Z,9.17
2023-02-12T11:20:23.599Z,9.03
2023-02-12T11:23:31.796Z,6.40
2023-02-12T11:26:37.729Z,5.70
2023-02-12T11:29:48.881Z,4.93
2023-02-12T11:32:55.211Z,12.13
2023-02-12T11:36:07.057Z,6.43
2023-02-12T11:39:23.055Z,15.13
2023-02-12T11:42:34.738Z,7.97
2023-02-12T11:45:47.970Z,5.50
2023-02-12T11:48:56.803Z,10.63
2023-02-12T11:52:04.949Z,7.00
2023-02-12T11:55:23.411Z,15.17
2023-02-12T11:58:30.724Z,13.27
2023-02-12T12:01:41.922Z,8.07
2023-02-12T12:04:53.141Z,12.27
2023-02-12T12:08:03.708Z,13.47
2023-02-12T12:11:17.935Z,12.33
2023-02-12T12:14:30.396Z,34.20
2023-02-12T12:18:02.992Z,46.93
2023-02-12T12:21:14.858Z,25.07
2023-02-12T12:24:25.936Z,16.20
2023-02-12T12:27:55.010Z,19.23
2023-02-12T12:31:08.123Z,9.90
2023-02-12T12:34:18.224Z,20.47
2023-02-12T12:37:34.485Z,18.47
2023-02-12T12:40:51.379Z,9.30
2023-02-12T12:44:08.495Z,28.43
2023-02-12T12:47:25.684Z,19.20
2023-02-12T12:50:53.226Z,8.00
2023-02-12T12:54:13.840Z,12.60
2023-02-12T12:57:33.681Z,8.17
2023-02-12T13:00:58.088Z,6.10
2023-02-12T13:04:33.882Z,16.33
2023-02-12T13:07:52.060Z,7.63
2023-02-12T13:11:04.709Z,44.43
2023-02-12T13:14:28.885Z,20.00
2023-02-12T13:17:46.068Z,13.10
2023-02-12T13:21:01.272Z,12.13
2023-02-12T13:24:22.424Z,11.53
2023-02-12T13:27:34.251Z,11.23
2023-02-12T13:30:46.485Z,11.70
2023-02-12T13:33:56.172Z,9.00
2023-02-12T13:37:04.020Z,19.17
2023-02-12T13:40:18.703Z,15.13
2023-02-12T13:43:37.830Z,17.30
2023-02-12T13:46:54.716Z,14.77
2023-02-12T13:50:08.444Z,14.50
2023-02-12T13:53:24.092Z,15.73
2023-02-12T13:56:41.729Z,14.93
2023-02-12T13:59:50.161Z,11.63
2023-02-12T14:02:57.046Z,11.50
2023-02-12T14:06:16.724Z,32.50
2023-02-12T14:09:34.174Z,24.90
2023-02-12T14:12:43.086Z,90.03
2023-02-12T14:15:52.768Z,45.40
2023-02-12T14:19:32.419Z,32.70
2023-02-12T14:23:02.826Z,18.27
2023-02-12T14:26:13.079Z,18.93
2023-02-12T14:29:22.080Z,20.33
2023-02-12T14:32:58.358Z,24.67
2023-02-12T14:36:17.613Z,25.50
2023-02-12T14:39:31.169Z,16.63
2023-02-12T14:42:45.218Z,7.50
2023-02-12T14:45:52.863Z,23.93
2023-02-12T14:49:05.017Z,15.57
2023-02-12T14:52:17.938Z,20.37
2023-02-12T14:55:28.731Z,12.03
2023-02-12T14:58:35.068Z,15.57
2023-02-12T15:01:44.129Z,21.23
2023-02-12T15:04:52.992Z,17.80
2023-02-12T15:08:01.987Z,49.13
2023-02-12T15:11:21.421Z,36.90
2023-02-12T15:14:32.246Z,22.57
2023-02-12T15:17:43.671Z,34.23
2023-02-12T15:20:56.123Z,29.07
2023-02-12T15:24:11.194Z,36.70
2023-02-12T15:27:18.475Z,53.13
2023-02-12T15:30:27.886Z,45.10
2023-02-12T15:33:37.157Z,46.27
2023-02-12T15:36:47.450Z,54.67
2023-02-12T15:39:57.270Z,56.83
2023-02-12T15:43:05.578Z,38.10
2023-02-12T15:46:19.090Z,50.00
2023-02-12T15:49:32.379Z,53.53
2023-02-12T15:52:41.370Z,41.37
2023-02-12T15:55:50.420Z,54.70
2023-02-12T15:58:59.108Z,36.60
2023-02-12T16:02:05.846Z,41.70
2023-02-12T16:05:17.963Z,37.00
2023-02-12T16:08:25.569Z,40.83
2023-02-12T16:11:33.454Z,32.00
2023-02-12T16:14:44.819Z,40.80
2023-02-12T16:17:51.089Z,49.93
2023-02-12T16:21:07.795Z,56.77
2023-02-12T16:24:26.737Z,46.23
2023-02-12T16:27:35.275Z,59.03
2023-02-12T16:30:44.307Z,48.00
2023-02-12T16:33:53.396Z,63.83
2023-02-12T16:37:01.219Z,57.33
2023-02-12T16:40:31.011Z,62.43
2023-02-12T16:43:36.998Z,97.33
2023-02-12T16:46:48.103Z,105.37
2023-02-12T16:49:57.940Z,97.50
2023-02-12T16:53:06.933Z,85.83
2023-02-12T16:56:18.355Z,82.03
2023-02-12T16:59:24.969Z,66.97
2023-02-12T17:02:31.241Z,69.37
2023-02-12T17:05:37.768Z,65.10
2023-02-12T17:08:45.662Z,61.93
2023-02-12T17:11:51.878Z,53.93
2023-02-12T17:14:57.890Z,69.57
2023-02-12T17:18:04.142Z,56.57
2023-02-12T17:21:19.732Z,71.13
2023-02-12T17:24:29.521Z,34.13
2023-02-12T17:27:38.077Z,49.23
2023-02-12T17:30:45.013Z,38.43
2023-02-12T17:33:51.195Z,40.23
2023-02-12T17:36:57.497Z,36.07
2023-02-12T17:40:05.228Z,49.83
2023-02-12T17:43:11.741Z,48.63
2023-02-12T17:46:22.001Z,65.83
2023-02-12T17:49:28.437Z,86.17
2023-02-12T17:52:34.739Z,48.63
2023-02-12T17:55:42.729Z,81.47
2023-02-12T17:58:50.582Z,68.83
2023-02-12T18:01:57.213Z,87.63
2023-02-12T18:05:03.364Z,103.77
2023-02-12T18:08:10.305Z,107.80
2023-02-12T18:11:19.145Z,68.00
2023-02-12T18:14:25.612Z,57.40
2023-02-12T18:17:31.974Z,61.27
2023-02-12T18:20:40.615Z,66.27
2023-02-12T18:23:46.739Z,47.03
2023-02-12T18:26:54.427Z,68.57
2023-02-12T18:30:00.708Z,54.07
2023-02-12T18:33:07.445Z,47.90
2023-02-12T18:36:15.853Z,64.50
2023-02-12T18:39:22.300Z,61.23
2023-02-12T18:42:30.307Z,53.67
2023-02-12T18:45:36.810Z,47.37
2023-02-12T18:48:43.619Z,54.80
2023-02-12T18:51:49.944Z,45.47
2023-02-12T18:54:56.362Z,37.00
2023-02-12T18:58:03.937Z,29.40
2023-02-12T19:01:14.898Z,25.17
2023-02-12T19:04:24.399Z,30.13
2023-02-12T19:07:30.573Z,47.37
2023-02-12T19:10:40.063Z,62.93
2023-02-12T19:13:47.626Z,73.27
2023-02-12T19:16:54.617Z,80.37
2023-02-12T19:20:00.969Z,87.50
2023-02-12T19:23:07.358Z,87.77
2023-02-12T19:26:15.678Z,55.63
2023-02-12T19:29:23.256Z,49.97
2023-02-12T19:32:29.888Z,57.30
2023-02-12T19:35:36.343Z,45.90
2023-02-12T19:38:43.316Z,44.63
2023-02-12T19:41:50.561Z,43.93
2023-02-12T19:44:58.621Z,49.07
2023-02-12T19:48:05.199Z,59.93
2023-02-12T19:51:15.151Z,49.00
2023-02-12T19:54:22.919Z,38.00
2023-02-12T19:57:29.259Z,50.73
2023-02-12T20:00:37.062Z,55.47
2023-02-12T20:03:43.592Z,69.00
2023-02-12T20:06:51.103Z,54.17
2023-02-12T20:09:57.328Z,71.40
2023-02-12T20:13:03.656Z,61.47
2023-02-12T20:16:13.645Z,63.47
2023-02-12T20:19:23.009Z,35.67
2023-02-12T20:22:29.419Z,41.07
2023-02-12T20:25:35.743Z,40.23
2023-02-12T20:28:43.023Z,38.07
2023-02-12T20:31:51.003Z,46.73
2023-02-12T20:34:57.610Z,48.33
2023-02-12T20:38:04.321Z,147.00
2023-02-12T20:41:11.924Z,94.43
2023-02-12T20:44:20.296Z,77.43
2023-02-12T20:47:29.615Z,58.93
2023-02-12T20:50:36.074Z,46.80
2023-02-12T20:53:43.689Z,66.50
2023-02-12T20:56:51.759Z,52.33
2023-02-12T20:59:58.199Z,61.20
2023-02-12T21:03:06.185Z,54.40
2023-02-12T21:06:13.280Z,38.40
2023-02-12T21:09:20.049Z,65.53
2023-02-12T21:12:26.566Z,47.47
2023-02-12T21:15:33.244Z,50.33
2023-02-12T21:18:41.181Z,24.07
2023-02-12T21:21:48.118Z,35.63
2023-02-12T21:24:54.583Z,34.70
2023-02-12T21:28:00.871Z,26.30
2023-02-12T21:31:08.701Z,32.90
2023-02-12T21:34:18.043Z,37.93
2023-02-12T21:37:24.334Z,51.33
2023-02-12T21:40:30.562Z,46.83
2023-02-12T21:43:37.288Z,42.83
2023-02-12T21:46:44.350Z,43.57
2023-02-12T21:49:52.184Z,73.93
2023-02-12T21:52:59.114Z,78.67
2023-02-12T21:56:06.225Z,74.63
2023-02-12T21:59:12.940Z,94.20
2023-02-12T22:02:19.317Z,87.97
2023-02-12T22:05:26.727Z,62.00
2023-02-12T22:08:33.032Z,41.23
2023-02-12T22:11:40.810Z,73.93
2023-02-12T22:14:47.173Z,34.57
2023-02-12T22:17:53.580Z,42.33
2023-02-12T22:21:03.047Z,29.00
2023-02-12T22:24:12.543Z,45.00
2023-02-12T22:27:18.534Z,34.87
2023-02-12T22:30:24.665Z,33.90
2023-02-12T22:33:30.728Z,31.07
2023-02-12T22:36:39.588Z,24.27
2023-02-12T22:39:45.627Z,33.10
2023-02-12T22:42:51.527Z,28.37
2023-02-12T22:45:58.000Z,26.60
2023-02-12T22:49:04.559Z,31.67
2023-02-12T22:52:12.517Z,29.80
2023-02-12T22:55:19.042Z,31.53
2023-02-12T22:58:25.532Z,32.87
2023-02-12T23:01:32.356Z,39.07
2023-02-12T23:04:38.763Z,46.07
2023-02-12T23:07:46.697Z,68.77
2023-02-12T23:10:52.939Z,49.87
2023-02-12T23:13:59.740Z,48.47
2023-02-12T23:17:05.863Z,47.27
2023-02-12T23:20:13.580Z,61.47
2023-02-12T23:23:21.844Z,48.50
2023-02-12T23:26:28.787Z,59.43
2023-02-12T23:29:35.994Z,46.40
2023-02-12T23:32:42.423Z,58.27
2023-02-12T23:35:49.632Z,49.63
2023-02-12T23:38:57.458Z,42.67
2023-02-12T23:42:03.967Z,39.37
2023-02-12T23:45:11.252Z,66.80
2023-02-12T23:48:17.702Z,53.40
2023-02-12T23:51:23.722Z,39.03
2023-02-12T23:54:31.819Z,50.80
2023-02-12T23:57:37.901Z,50.13
